<?xml version='1.0' encoding='UTF-8'?>
<gpx xmlns="http://www.topografix.com/GPX/1/1" creator="www.balnam.be" version="1.1" xmlns:xsi="http://www.w3.org/2001/XMLSchema-instance" xsi:schemaLocation="http://www.topografix.com/GPX/1/1 http://www.topografix.com/GPX/1/1/gpx.xsd">
<trk>
<name>llggv61</name>
<cmt>v</cmt>
<desc>Grivegnée Sentier n°61 </desc>
<link href="https://chemins.be/grivegnee/sentier/61"/><trkseg>
<trkpt lat="50.642079" lon="5.606189"><time>2026-05-04T17:07:16Z</time></trkpt>
<trkpt lat="50.642074" lon="5.606641"><time>2026-05-04T17:17:16Z</time></trkpt>
<trkpt lat="50.641851" lon="5.606508"><time>2026-05-04T17:27:16Z</time></trkpt>
<trkpt lat="50.641835" lon="5.606281"><time>2026-05-04T17:37:16Z</time></trkpt>
<trkpt lat="50.641766" lon="5.606011"><time>2026-05-04T17:47:16Z</time></trkpt>
<trkpt lat="50.641688" lon="5.605783"><time>2026-05-04T17:57:16Z</time></trkpt>
<trkpt lat="50.641645" lon="5.605569"><time>2026-05-04T18:07:16Z</time></trkpt>
<trkpt lat="50.641569" lon="5.605044"><time>2026-05-04T18:17:16Z</time></trkpt>
<trkpt lat="50.641501" lon="5.604760"><time>2026-05-04T18:27:16Z</time></trkpt>
<trkpt lat="50.641448" lon="5.604617"><time>2026-05-04T18:37:16Z</time></trkpt>
<trkpt lat="50.641211" lon="5.604130"><time>2026-05-04T18:47:16Z</time></trkpt>
<trkpt lat="50.640982" lon="5.603657"><time>2026-05-04T18:57:16Z</time></trkpt>
<trkpt lat="50.640861" lon="5.603173"><time>2026-05-04T19:07:16Z</time></trkpt>
<trkpt lat="50.640694" lon="5.602801"><time>2026-05-04T19:17:16Z</time></trkpt>
<trkpt lat="50.640597" lon="5.602672"><time>2026-05-04T19:27:16Z</time></trkpt>
<trkpt lat="50.640553" lon="5.602501"><time>2026-05-04T19:37:16Z</time></trkpt>
<trkpt lat="50.640528" lon="5.602359"><time>2026-05-04T19:47:16Z</time></trkpt>
<trkpt lat="50.640468" lon="5.602060"><time>2026-05-04T19:57:16Z</time></trkpt>
<trkpt lat="50.640353" lon="5.601859"><time>2026-05-04T20:07:16Z</time></trkpt>
<trkpt lat="50.640319" lon="5.601675"><time>2026-05-04T20:17:16Z</time></trkpt>
<trkpt lat="50.640134" lon="5.601345"><time>2026-05-04T20:27:16Z</time></trkpt>
<trkpt lat="50.640038" lon="5.601102"><time>2026-05-04T20:37:16Z</time></trkpt>
<trkpt lat="50.640002" lon="5.601101"><time>2026-05-04T20:47:16Z</time></trkpt>
<trkpt lat="50.639949" lon="5.600972"><time>2026-05-04T20:57:16Z</time></trkpt>
<trkpt lat="50.639871" lon="5.600730"><time>2026-05-04T21:07:16Z</time></trkpt>
<trkpt lat="50.639791" lon="5.600615"><time>2026-05-04T21:17:16Z</time></trkpt>
<trkpt lat="50.639604" lon="5.600468"><time>2026-05-04T21:27:16Z</time></trkpt>
<trkpt lat="50.639527" lon="5.600085"><time>2026-05-04T21:37:16Z</time></trkpt>
<trkpt lat="50.639422" lon="5.599827"><time>2026-05-04T21:47:16Z</time></trkpt>
<trkpt lat="50.639351" lon="5.599684"><time>2026-05-04T21:57:16Z</time></trkpt>
<trkpt lat="50.639326" lon="5.599570"><time>2026-05-04T22:07:16Z</time></trkpt>
<trkpt lat="50.639265" lon="5.599357"><time>2026-05-04T22:17:16Z</time></trkpt>
<trkpt lat="50.639033" lon="5.599167"><time>2026-05-04T22:27:16Z</time></trkpt>
<trkpt lat="50.638900" lon="5.598979"><time>2026-05-04T22:37:16Z</time></trkpt>
</trkseg>
</trk>
</gpx>